createdAt,value
2022-11-26T00:00:53.661Z,19.65
2022-11-26T00:03:20.596Z,17.98
2022-11-26T00:05:51.159Z,20.60
2022-11-26T00:08:20.712Z,20.77
2022-11-26T00:10:50.996Z,16.05
2022-11-26T00:13:23.635Z,18.10
2022-11-26T00:15:50.690Z,22.27
2022-11-26T00:18:18.436Z,22.10
2022-11-26T00:20:49.771Z,15.00
2022-11-26T00:23:27.192Z,14.20
2022-11-26T00:26:01.376Z,15.57
2022-11-26T00:28:36.673Z,16.60
2022-11-26T00:31:14.353Z,14.25
2022-11-26T00:33:41.073Z,17.20
2022-11-26T00:36:19.024Z,14.43
2022-11-26T00:38:47.376Z,17.58
2022-11-26T00:41:18.442Z,17.88
2022-11-26T00:43:46.148Z,20.27
2022-11-26T00:46:14.626Z,16.67
2022-11-26T00:48:41.592Z,21.17
2022-11-26T00:51:15.471Z,20.67
2022-11-26T00:53:43.566Z,25.42
2022-11-26T00:56:15.425Z,18.20
2022-11-26T00:58:42.237Z,14.20
2022-11-26T01:01:11.528Z,13.90
2022-11-26T01:03:42.743Z,13.80
2022-11-26T01:06:30.185Z,15.95
2022-11-26T01:08:57.105Z,11.57
2022-11-26T01:11:24.224Z,20.58
2022-11-26T01:13:53.489Z,14.18
2022-11-26T01:16:27.801Z,17.50
2022-11-26T01:18:57.014Z,11.23
2022-11-26T01:21:26.439Z,15.38
2022-11-26T01:23:52.949Z,15.52
2022-11-26T01:26:23.029Z,14.80
2022-11-26T01:28:50.484Z,19.90
2022-11-26T01:31:20.505Z,22.65
2022-11-26T01:33:47.201Z,20.15
2022-11-26T01:36:27.431Z,19.00
2022-11-26T01:38:55.988Z,20.10
2022-11-26T01:41:59.771Z,16.95
2022-11-26T01:44:30.066Z,20.73
2022-11-26T01:46:57.629Z,16.83
2022-11-26T01:49:32.841Z,18.63
2022-11-26T01:52:09.458Z,17.10
2022-11-26T01:54:40.406Z,12.80
2022-11-26T01:57:12.463Z,16.63
2022-11-26T01:59:45.229Z,20.60
2022-11-26T02:02:12.021Z,22.98
2022-11-26T02:04:54.516Z,18.48
2022-11-26T02:07:21.146Z,14.25
2022-11-26T02:09:47.815Z,18.08
2022-11-26T02:12:14.468Z,21.77
2022-11-26T02:14:43.788Z,18.55
2022-11-26T02:17:25.463Z,15.65
2022-11-26T02:19:58.055Z,17.20
2022-11-26T02:22:49.521Z,17.70
2022-11-26T02:25:34.544Z,17.88
2022-11-26T02:30:30.564Z,11.07
2022-11-26T02:33:24.080Z,15.60
2022-11-26T02:35:58.375Z,13.85
2022-11-26T02:38:30.361Z,19.85
2022-11-26T02:40:57.185Z,12.50
2022-11-26T02:43:24.541Z,14.60
2022-11-26T02:45:55.894Z,15.30
2022-11-26T02:48:27.633Z,19.55
2022-11-26T02:50:58.110Z,15.52
2022-11-26T02:53:28.512Z,13.15
2022-11-26T02:56:03.605Z,18.70
2022-11-26T02:58:31.160Z,12.57
2022-11-26T03:01:01.857Z,14.25
2022-11-26T03:03:34.738Z,11.93
2022-11-26T03:06:05.789Z,15.40
2022-11-26T03:08:33.464Z,12.30
2022-11-26T03:11:00.556Z,12.18
2022-11-26T03:13:27.212Z,14.98
2022-11-26T03:15:53.730Z,16.38
2022-11-26T03:18:20.254Z,10.93
2022-11-26T03:20:46.915Z,13.32
2022-11-26T03:23:13.993Z,16.48
2022-11-26T03:25:40.661Z,15.57
2022-11-26T03:28:07.448Z,18.90
2022-11-26T03:30:33.978Z,14.43
2022-11-26T03:33:00.540Z,13.95
2022-11-26T03:35:27.033Z,18.40
2022-11-26T03:37:53.729Z,16.42
2022-11-26T03:40:20.283Z,20.95
2022-11-26T03:42:46.799Z,14.65
2022-11-26T03:45:13.629Z,18.30
2022-11-26T03:47:40.455Z,14.90
2022-11-26T03:50:08.070Z,26.70
2022-11-26T03:52:34.666Z,18.88
2022-11-26T03:55:01.214Z,13.30
2022-11-26T03:57:27.792Z,15.52
2022-11-26T03:59:54.334Z,16.85
2022-11-26T04:02:20.942Z,18.15
2022-11-26T04:04:47.480Z,23.05
2022-11-26T04:07:14.021Z,14.05
2022-11-26T04:09:40.564Z,15.65
2022-11-26T04:12:07.083Z,16.33
2022-11-26T04:14:33.641Z,13.88
2022-11-26T04:17:00.309Z,15.35
2022-11-26T04:19:26.825Z,15.63
2022-11-26T04:21:53.301Z,11.77
2022-11-26T04:24:19.792Z,13.00
2022-11-26T04:26:47.489Z,13.38
2022-11-26T04:29:14.025Z,10.55
2022-11-26T04:31:40.594Z,16.27
2022-11-26T04:34:07.158Z,17.92
2022-11-26T04:36:33.680Z,18.75
2022-11-26T04:39:00.176Z,17.08
2022-11-26T04:41:26.772Z,17.77
2022-11-26T04:43:53.362Z,16.05
2022-11-26T04:46:20.008Z,13.95
2022-11-26T04:48:46.571Z,12.40
2022-11-26T04:51:13.962Z,22.20
2022-11-26T04:53:40.442Z,16.15
2022-11-26T04:56:07.129Z,12.75
2022-11-26T04:58:33.726Z,9.90
2022-11-26T05:01:00.303Z,14.20
2022-11-26T05:03:26.843Z,10.52
2022-11-26T05:05:53.533Z,19.05
2022-11-26T05:08:20.069Z,7.13
2022-11-26T05:10:46.586Z,12.32
2022-11-26T05:13:13.210Z,12.05
2022-11-26T05:15:39.836Z,10.45
2022-11-26T05:18:06.461Z,14.73
2022-11-26T05:20:32.990Z,14.23
2022-11-26T05:22:59.506Z,13.32
2022-11-26T05:25:26.009Z,10.60
2022-11-26T05:27:52.559Z,11.18
2022-11-26T05:30:19.421Z,20.58
2022-11-26T05:32:45.981Z,9.82
2022-11-26T05:35:12.588Z,10.20
2022-11-26T05:37:39.260Z,11.40
2022-11-26T05:40:06.455Z,9.38
2022-11-26T05:42:32.935Z,11.80
2022-11-26T05:44:59.549Z,13.80
2022-11-26T05:47:26.135Z,12.48
2022-11-26T05:49:52.776Z,15.10
2022-11-26T05:52:19.392Z,10.38
2022-11-26T05:54:45.937Z,12.93
2022-11-26T05:57:12.635Z,15.65
2022-11-26T05:59:39.201Z,10.77
2022-11-26T06:02:09.875Z,17.50
2022-11-26T06:04:36.663Z,15.57
2022-11-26T06:07:03.541Z,8.82
2022-11-26T06:09:30.159Z,14.98
2022-11-26T06:11:56.799Z,15.25
2022-11-26T06:14:23.325Z,6.40
2022-11-26T06:16:49.834Z,12.63
2022-11-26T06:19:16.459Z,12.15
2022-11-26T06:21:42.985Z,6.88
2022-11-26T06:24:09.732Z,10.02
2022-11-26T06:26:36.231Z,8.65
2022-11-26T06:29:03.444Z,14.10
2022-11-26T06:31:30.004Z,12.70
2022-11-26T06:33:56.998Z,10.05
2022-11-26T06:36:24.356Z,11.60
2022-11-26T06:38:51.375Z,11.20
2022-11-26T06:41:18.208Z,10.02
2022-11-26T06:43:44.704Z,13.52
2022-11-26T06:46:13.403Z,15.57
2022-11-26T06:48:40.561Z,13.60
2022-11-26T06:51:09.989Z,12.80
2022-11-26T06:53:37.049Z,13.43
2022-11-26T06:56:05.980Z,13.13
2022-11-26T06:58:33.171Z,9.27
2022-11-26T07:00:59.878Z,11.98
2022-11-26T07:03:31.902Z,12.07
2022-11-26T07:05:59.690Z,10.98
2022-11-26T07:08:26.399Z,10.00
2022-11-26T07:10:52.911Z,25.48
2022-11-26T07:13:19.468Z,19.02
2022-11-26T07:15:46.033Z,17.48
2022-11-26T07:18:12.720Z,21.00
2022-11-26T07:20:39.266Z,20.17
2022-11-26T07:23:06.133Z,16.08
2022-11-26T07:25:32.640Z,21.42
2022-11-26T07:27:59.205Z,16.35
2022-11-26T07:30:26.100Z,18.77
2022-11-26T07:32:52.829Z,14.32
2022-11-26T07:35:19.436Z,12.70
2022-11-26T07:37:45.914Z,17.77
2022-11-26T07:40:13.021Z,19.67
2022-11-26T07:42:39.556Z,15.00
2022-11-26T07:45:06.528Z,19.20
2022-11-26T07:47:33.665Z,22.20
2022-11-26T07:50:00.375Z,17.23
2022-11-26T07:52:27.059Z,22.30
2022-11-26T07:54:53.809Z,26.27
2022-11-26T07:57:22.243Z,20.52
2022-11-26T07:59:49.182Z,21.92
2022-11-26T08:02:15.889Z,26.73
2022-11-26T08:04:42.838Z,29.55
2022-11-26T08:07:09.442Z,35.35
2022-11-26T08:09:35.941Z,34.80
2022-11-26T08:12:02.512Z,25.15
2022-11-26T08:14:29.570Z,30.58
2022-11-26T08:16:57.300Z,23.10
2022-11-26T08:19:24.447Z,29.92
2022-11-26T08:21:51.014Z,19.83
2022-11-26T08:24:19.374Z,25.20
2022-11-26T08:26:46.112Z,26.45
2022-11-26T08:29:13.699Z,20.77
2022-11-26T08:31:46.094Z,22.90
2022-11-26T08:34:15.734Z,23.52
2022-11-26T08:36:42.792Z,22.35
2022-11-26T08:39:13.481Z,21.58
2022-11-26T08:41:40.082Z,19.67
2022-11-26T08:44:07.742Z,19.08
2022-11-26T08:46:39.943Z,17.38
2022-11-26T08:49:08.405Z,15.02
2022-11-26T08:51:35.344Z,14.60
2022-11-26T08:54:02.352Z,10.77
2022-11-26T08:56:28.893Z,10.48
2022-11-26T08:58:55.665Z,9.77
2022-11-26T09:01:28.238Z,10.85
2022-11-26T09:03:57.721Z,17.65
2022-11-26T09:06:26.866Z,11.00
2022-11-26T09:09:11.918Z,14.52
2022-11-26T09:14:19.443Z,9.13
2022-11-26T09:16:46.200Z,9.10
2022-11-26T09:19:14.333Z,10.57
2022-11-26T09:21:41.357Z,12.75
2022-11-26T09:24:08.037Z,10.15
2022-11-26T09:26:35.148Z,9.43
2022-11-26T09:29:02.766Z,12.23
2022-11-26T09:31:29.842Z,15.25
2022-11-26T09:33:58.966Z,17.20
2022-11-26T09:36:26.479Z,10.45
2022-11-26T09:38:57.323Z,10.20
2022-11-26T09:41:23.833Z,8.20
2022-11-26T09:44:05.360Z,10.10
2022-11-26T09:47:13.260Z,6.15
2022-11-26T09:49:59.528Z,7.20
2022-11-26T09:52:30.443Z,13.82
2022-11-26T09:55:32.915Z,5.05
2022-11-26T09:58:02.166Z,8.38
2022-11-26T10:00:41.546Z,8.10
2022-11-26T10:03:35.726Z,10.70
2022-11-26T10:06:07.499Z,5.45
2022-11-26T10:08:55.498Z,6.50
2022-11-26T10:11:35.781Z,6.85
2022-11-26T10:14:27.027Z,7.78
2022-11-26T10:17:12.763Z,6.63
2022-11-26T10:19:50.264Z,10.38
2022-11-26T10:22:31.783Z,10.15
2022-11-26T10:25:01.557Z,8.20
2022-11-26T10:27:32.801Z,8.80
2022-11-26T10:30:16.000Z,11.38
2022-11-26T10:32:46.065Z,6.38
2022-11-26T10:35:21.722Z,10.90
2022-11-26T10:37:49.202Z,11.77
2022-11-26T10:40:26.013Z,18.55
2022-11-26T10:43:19.031Z,15.70
2022-11-26T10:45:51.752Z,9.95
2022-11-26T10:48:32.626Z,14.70
2022-11-26T10:51:07.667Z,23.08
2022-11-26T10:53:52.168Z,37.50
2022-11-26T10:56:23.625Z,17.30
2022-11-26T10:58:52.413Z,36.35
2022-11-26T11:01:20.059Z,11.65
2022-11-26T11:04:08.121Z,14.82
2022-11-26T11:06:38.668Z,19.95
2022-11-26T11:09:24.695Z,15.30
2022-11-26T11:12:15.822Z,15.80
2022-11-26T11:14:45.570Z,10.95
2022-11-26T11:17:27.782Z,22.60
2022-11-26T11:19:55.183Z,32.45
2022-11-26T11:22:22.281Z,15.43
2022-11-26T11:24:49.268Z,9.05
2022-11-26T11:27:27.989Z,10.32
2022-11-26T11:30:00.950Z,12.95
2022-11-26T11:32:39.183Z,9.88
2022-11-26T11:35:18.738Z,7.25
2022-11-26T11:37:54.034Z,9.50
2022-11-26T11:40:29.153Z,13.82
2022-11-26T11:42:59.124Z,8.88
2022-11-26T11:45:43.079Z,12.45
2022-11-26T11:48:43.510Z,13.27
2022-11-26T11:51:47.269Z,12.40
2022-11-26T11:54:52.535Z,18.15
2022-11-26T11:58:00.355Z,16.52
2022-11-26T12:00:40.782Z,15.32
2022-11-26T12:03:32.186Z,15.05
2022-11-26T12:06:17.553Z,12.07
2022-11-26T12:08:52.856Z,12.85
2022-11-26T12:11:43.701Z,15.30
2022-11-26T12:14:19.240Z,14.63
2022-11-26T12:16:50.069Z,11.10
2022-11-26T12:19:27.444Z,15.65
2022-11-26T12:22:00.267Z,12.02
2022-11-26T12:24:35.992Z,11.13
2022-11-26T12:27:10.623Z,12.68
2022-11-26T12:29:43.434Z,12.10
2022-11-26T12:32:15.597Z,16.95
2022-11-26T12:34:51.762Z,11.55
2022-11-26T12:37:26.739Z,9.07
2022-11-26T12:40:16.172Z,11.25
2022-11-26T12:43:09.425Z,13.02
2022-11-26T12:45:58.448Z,11.75
2022-11-26T12:48:38.984Z,14.50
2022-11-26T12:51:14.321Z,12.30
2022-11-26T12:54:05.123Z,10.98
2022-11-26T12:56:53.538Z,11.18
2022-11-26T12:59:31.883Z,8.55
2022-11-26T13:01:59.046Z,11.43
2022-11-26T13:04:37.635Z,8.93
2022-11-26T13:07:35.772Z,9.90
2022-11-26T13:10:24.180Z,12.82
2022-11-26T13:12:53.584Z,6.88
2022-11-26T13:15:23.080Z,7.10
2022-11-26T13:17:51.125Z,8.07
2022-11-26T13:20:42.744Z,7.35
2022-11-26T13:23:35.175Z,6.65
2022-11-26T13:26:22.530Z,10.52
2022-11-26T13:29:23.471Z,7.00
2022-11-26T13:31:59.519Z,8.10
2022-11-26T13:34:40.635Z,8.77
2022-11-26T13:37:24.139Z,9.80
2022-11-26T13:40:02.970Z,11.35
2022-11-26T13:43:27.837Z,12.10
2022-11-26T13:46:33.644Z,10.88
2022-11-26T13:49:11.036Z,10.25
2022-11-26T13:51:46.242Z,10.63
2022-11-26T13:54:22.648Z,12.65
2022-11-26T13:56:50.534Z,11.05
2022-11-26T13:59:26.826Z,12.23
2022-11-26T14:01:54.804Z,8.43
2022-11-26T14:04:24.102Z,14.27
2022-11-26T14:07:05.567Z,13.02
2022-11-26T14:09:48.302Z,15.57
2022-11-26T14:12:19.792Z,9.85
2022-11-26T14:14:49.137Z,12.48
2022-11-26T14:17:32.512Z,11.23
2022-11-26T14:22:29.374Z,11.90
2022-11-26T14:25:01.857Z,10.65
2022-11-26T14:27:32.159Z,11.60
2022-11-26T14:30:07.998Z,8.45
2022-11-26T14:32:42.541Z,11.65
2022-11-26T14:37:52.623Z,14.63
2022-11-26T14:40:26.866Z,8.15
2022-11-26T14:43:26.136Z,14.60
2022-11-26T14:46:13.823Z,13.52
2022-11-26T14:48:48.837Z,11.70
2022-11-26T14:51:25.380Z,12.82
2022-11-26T14:53:53.649Z,11.88
2022-11-26T14:56:23.075Z,10.15
2022-11-26T14:58:53.680Z,13.70
2022-11-26T15:01:29.256Z,11.93
2022-11-26T15:04:01.530Z,10.45
2022-11-26T15:06:40.613Z,15.50
2022-11-26T15:09:12.610Z,8.00
2022-11-26T15:11:48.663Z,11.25
2022-11-26T15:14:24.320Z,10.02
2022-11-26T15:17:05.274Z,14.00
2022-11-26T15:19:35.399Z,11.30
2022-11-26T15:22:06.557Z,11.93
2022-11-26T15:24:33.437Z,12.18
2022-11-26T15:27:00.016Z,9.95
2022-11-26T15:29:41.080Z,12.60
2022-11-26T15:32:25.419Z,15.80
2022-11-26T15:34:53.242Z,13.02
2022-11-26T15:37:19.749Z,11.38
2022-11-26T15:39:46.327Z,8.55
2022-11-26T15:42:29.895Z,7.80
2022-11-26T15:44:56.773Z,10.63
2022-11-26T15:47:26.405Z,12.25
2022-11-26T15:49:57.343Z,9.20
2022-11-26T15:52:30.506Z,11.20
2022-11-26T15:55:12.441Z,8.82
2022-11-26T15:57:41.262Z,10.63
2022-11-26T16:00:28.145Z,15.18
2022-11-26T16:02:54.767Z,7.80
2022-11-26T16:05:41.660Z,11.60
2022-11-26T16:08:30.508Z,11.27
2022-11-26T16:11:03.088Z,12.30
2022-11-26T16:13:34.657Z,11.13
2022-11-26T16:16:03.876Z,10.52
2022-11-26T16:18:42.060Z,10.68
2022-11-26T16:21:28.579Z,10.45
2022-11-26T16:24:25.912Z,9.18
2022-11-26T16:26:59.252Z,8.38
2022-11-26T16:29:26.957Z,14.02
2022-11-26T16:31:53.890Z,13.15
2022-11-26T16:34:20.538Z,15.82
2022-11-26T16:36:47.321Z,13.18
2022-11-26T16:39:17.426Z,16.42
2022-11-26T16:41:43.970Z,7.65
2022-11-26T16:44:13.675Z,14.27
2022-11-26T16:46:41.179Z,19.10
2022-11-26T16:49:07.826Z,19.77
2022-11-26T16:51:34.337Z,20.55
2022-11-26T16:54:00.991Z,19.65
2022-11-26T16:56:38.264Z,18.33
2022-11-26T16:59:23.902Z,28.95
2022-11-26T17:01:50.483Z,27.42
2022-11-26T17:04:18.756Z,23.50
2022-11-26T17:06:45.859Z,21.52
2022-11-26T17:09:18.523Z,17.52
2022-11-26T17:11:45.341Z,16.00
2022-11-26T17:14:12.478Z,15.25
2022-11-26T17:16:40.737Z,16.65
2022-11-26T17:19:13.311Z,14.85
2022-11-26T17:21:40.147Z,24.73
2022-11-26T17:24:07.138Z,28.23
2022-11-26T17:26:33.756Z,34.92
2022-11-26T17:29:01.296Z,29.58
2022-11-26T17:31:29.771Z,27.70
2022-11-26T17:33:56.480Z,35.97
2022-11-26T17:36:23.499Z,34.25
2022-11-26T17:38:51.031Z,28.42
2022-11-26T17:41:17.896Z,35.58
2022-11-26T17:43:44.767Z,31.23
2022-11-26T17:46:20.851Z,25.92
2022-11-26T17:48:48.911Z,39.17
2022-11-26T17:51:15.935Z,29.65
2022-11-26T17:53:43.311Z,31.02
2022-11-26T17:56:24.040Z,23.10
2022-11-26T17:58:51.168Z,21.75
2022-11-26T18:01:17.941Z,24.30
2022-11-26T18:03:44.874Z,27.73
2022-11-26T18:06:35.537Z,29.10
2022-11-26T18:09:02.119Z,22.50
2022-11-26T18:11:51.789Z,28.63
2022-11-26T18:14:18.355Z,25.52
2022-11-26T18:16:45.355Z,23.08
2022-11-26T18:19:14.048Z,33.58
2022-11-26T18:21:41.147Z,26.95
2022-11-26T18:24:08.912Z,26.38
2022-11-26T18:26:36.439Z,26.85
2022-11-26T18:29:03.794Z,34.30
2022-11-26T18:31:35.419Z,35.35
2022-11-26T18:34:06.196Z,39.50
2022-11-26T18:36:32.764Z,34.03
2022-11-26T18:38:59.300Z,34.00
2022-11-26T18:41:25.900Z,33.15
2022-11-26T18:43:52.390Z,39.40
2022-11-26T18:46:19.038Z,55.60
2022-11-26T18:48:47.284Z,49.72
2022-11-26T18:51:15.061Z,44.05
2022-11-26T18:53:42.227Z,45.78
2022-11-26T18:56:10.943Z,41.38
2022-11-26T18:58:37.965Z,37.55
2022-11-26T19:01:13.556Z,39.83
2022-11-26T19:03:44.063Z,32.78
2022-11-26T19:06:15.799Z,28.02
2022-11-26T19:08:42.791Z,33.03
2022-11-26T19:11:17.322Z,25.35
2022-11-26T19:13:44.002Z,25.17
2022-11-26T19:16:16.875Z,28.92
2022-11-26T19:18:44.449Z,19.77
2022-11-26T19:21:27.364Z,23.85
2022-11-26T19:23:55.725Z,25.65
2022-11-26T19:26:22.915Z,52.33
2022-11-26T19:28:50.081Z,38.97
2022-11-26T19:31:19.654Z,38.78
2022-11-26T19:33:47.589Z,31.30
2022-11-26T19:36:18.757Z,37.92
2022-11-26T19:38:45.652Z,32.90
2022-11-26T19:41:13.143Z,28.13
2022-11-26T19:43:41.926Z,33.63
2022-11-26T19:46:14.230Z,35.22
2022-11-26T19:48:42.546Z,35.63
2022-11-26T19:51:10.876Z,31.48
2022-11-26T19:53:38.252Z,31.42
2022-11-26T19:56:29.176Z,31.30
2022-11-26T19:59:00.540Z,42.50
2022-11-26T20:01:30.611Z,38.47
2022-11-26T20:04:01.917Z,47.63
2022-11-26T20:06:30.546Z,51.92
2022-11-26T20:09:00.441Z,58.90
2022-11-26T20:11:28.407Z,50.13
2022-11-26T20:13:56.325Z,45.67
2022-11-26T20:16:26.262Z,55.92
2022-11-26T20:18:53.503Z,65.15
2022-11-26T20:21:34.495Z,65.25
2022-11-26T20:24:04.694Z,66.57
2022-11-26T20:26:34.250Z,65.30
2022-11-26T20:29:12.297Z,65.35
2022-11-26T20:31:47.314Z,64.50
2022-11-26T20:34:15.295Z,63.13
2022-11-26T20:36:41.920Z,60.05
2022-11-26T20:39:17.102Z,51.58
2022-11-26T20:41:43.773Z,50.80
2022-11-26T20:44:11.716Z,39.20
2022-11-26T20:46:39.026Z,36.47
2022-11-26T20:49:07.268Z,34.33
2022-11-26T20:51:34.012Z,38.72
2022-11-26T20:54:01.833Z,32.05
2022-11-26T20:56:29.102Z,44.38
2022-11-26T20:58:55.878Z,37.45
2022-11-26T21:01:27.545Z,32.45
2022-11-26T21:03:55.220Z,32.72
2022-11-26T21:06:29.386Z,33.55
2022-11-26T21:09:01.218Z,33.33
2022-11-26T21:11:28.820Z,48.58
2022-11-26T21:13:55.357Z,56.03
2022-11-26T21:16:23.295Z,45.85
2022-11-26T21:18:53.098Z,51.67
2022-11-26T21:21:20.963Z,52.78
2022-11-26T21:23:47.611Z,43.30
2022-11-26T21:26:21.933Z,53.10
2022-11-26T21:28:53.268Z,51.50
2022-11-26T21:31:20.935Z,49.70
2022-11-26T21:33:53.935Z,41.63
2022-11-26T21:36:20.491Z,40.38
2022-11-26T21:38:50.325Z,41.33
2022-11-26T21:41:19.892Z,47.83
2022-11-26T21:43:48.025Z,42.92
2022-11-26T21:46:20.463Z,40.67
2022-11-26T21:48:47.387Z,38.97
2022-11-26T21:51:17.077Z,34.15
2022-11-26T21:53:44.182Z,40.25
2022-11-26T21:56:14.990Z,36.58
2022-11-26T21:58:42.235Z,34.72
2022-11-26T22:01:23.988Z,40.33
2022-11-26T22:03:53.072Z,38.90
2022-11-26T22:06:22.002Z,32.90
2022-11-26T22:08:49.266Z,30.63
2022-11-26T22:11:23.305Z,41.35
2022-11-26T22:13:50.407Z,43.47
2022-11-26T22:16:19.496Z,39.88
2022-11-26T22:18:47.158Z,50.17
2022-11-26T22:21:19.584Z,48.67
2022-11-26T22:23:46.557Z,47.63
2022-11-26T22:26:13.934Z,42.53
2022-11-26T22:28:40.717Z,42.33
2022-11-26T22:31:30.810Z,37.63
2022-11-26T22:34:02.404Z,35.75
2022-11-26T22:36:29.054Z,45.42
2022-11-26T22:38:56.359Z,48.75
2022-11-26T22:41:23.347Z,44.78
2022-11-26T22:43:50.080Z,57.20
2022-11-26T22:46:23.211Z,59.30
2022-11-26T22:49:00.180Z,53.60
2022-11-26T22:51:30.424Z,62.95
2022-11-26T22:53:59.214Z,77.40
2022-11-26T22:56:26.543Z,94.63
2022-11-26T22:58:53.541Z,57.25
2022-11-26T23:01:26.601Z,61.63
2022-11-26T23:03:54.133Z,67.13
2022-11-26T23:06:22.814Z,82.72
2022-11-26T23:08:50.194Z,97.53
2022-11-26T23:11:23.352Z,65.40
2022-11-26T23:13:51.105Z,74.15
2022-11-26T23:16:19.661Z,50.80
2022-11-26T23:18:46.331Z,70.30
2022-11-26T23:21:17.057Z,123.20
2022-11-26T23:23:44.116Z,115.10
2022-11-26T23:26:16.010Z,146.95
2022-11-26T23:28:42.858Z,101.32
2022-11-26T23:31:24.331Z,77.97
2022-11-26T23:33:51.476Z,95.13
2022-11-26T23:36:19.551Z,78.15
2022-11-26T23:38:47.021Z,71.97
2022-11-26T23:41:13.751Z,73.18
2022-11-26T23:43:40.691Z,82.15
2022-11-26T23:46:16.272Z,59.22
2022-11-26T23:48:43.581Z,89.05
2022-11-26T23:51:14.233Z,78.50
2022-11-26T23:53:42.490Z,64.60
2022-11-26T23:56:13.903Z,76.20
2022-11-26T23:58:40.666Z,66.43
